createdAt,value
2019-01-11T00:00:57.131Z,16.77
2019-01-11T00:03:25.604Z,16.90
2019-01-11T00:05:54.427Z,16.17
2019-01-11T00:08:23.002Z,17.47
2019-01-11T00:10:51.400Z,15.70
2019-01-11T00:13:19.764Z,15.57
2019-01-11T00:15:48.232Z,15.90
2019-01-11T00:18:16.598Z,16.17
2019-01-11T00:20:45.065Z,16.50
2019-01-11T00:23:13.444Z,18.40
2019-01-11T00:25:43.120Z,17.83
2019-01-11T00:28:11.598Z,16.30
2019-01-11T00:30:40.085Z,18.40
2019-01-11T00:33:08.542Z,21.80
2019-01-11T00:35:36.937Z,19.07
2019-01-11T00:38:05.374Z,17.40
2019-01-11T00:40:33.913Z,17.37
2019-01-11T00:43:02.310Z,19.27
2019-01-11T00:45:30.699Z,18.97
2019-01-11T00:47:59.072Z,18.87
2019-01-11T00:50:27.621Z,17.77
2019-01-11T00:52:56.121Z,20.10
2019-01-11T00:55:24.483Z,19.37
2019-01-11T00:57:52.880Z,18.93
2019-01-11T01:00:22.482Z,18.80
2019-01-11T01:02:51.352Z,19.00
2019-01-11T01:05:20.106Z,19.67
2019-01-11T01:07:48.934Z,20.73
2019-01-11T01:10:19.006Z,19.93
2019-01-11T01:12:47.545Z,20.30
2019-01-11T01:15:16.419Z,21.20
2019-01-11T01:17:44.882Z,20.90
2019-01-11T01:20:15.764Z,20.17
2019-01-11T01:22:44.236Z,21.30
2019-01-11T01:25:13.102Z,21.90
2019-01-11T01:27:41.503Z,22.03
2019-01-11T01:30:17.825Z,21.90
2019-01-11T01:32:46.403Z,20.63
2019-01-11T01:35:15.322Z,20.50
2019-01-11T01:37:44.177Z,20.30
2019-01-11T01:40:14.959Z,20.47
2019-01-11T01:42:43.500Z,20.27
2019-01-11T01:45:16.831Z,20.73
2019-01-11T01:47:45.309Z,21.33
2019-01-11T01:50:14.619Z,20.90
2019-01-11T01:52:43.079Z,19.73
2019-01-11T01:55:13.298Z,21.03
2019-01-11T01:57:41.752Z,21.77
2019-01-11T02:00:18.955Z,21.07
2019-01-11T02:02:47.598Z,21.80
2019-01-11T02:05:16.404Z,22.30
2019-01-11T02:07:44.934Z,21.87
2019-01-11T02:10:14.261Z,21.40
2019-01-11T02:12:42.723Z,21.37
2019-01-11T02:15:11.927Z,21.50
2019-01-11T02:17:40.324Z,21.77
2019-01-11T02:20:16.414Z,20.17
2019-01-11T02:22:45.151Z,18.73
2019-01-11T02:25:14.239Z,21.07
2019-01-11T02:27:42.719Z,21.40
2019-01-11T02:30:14.270Z,21.27
2019-01-11T02:32:42.740Z,20.43
2019-01-11T02:35:11.237Z,20.63
2019-01-11T02:37:39.773Z,20.23
2019-01-11T02:40:10.378Z,20.43
2019-01-11T02:42:38.813Z,21.00
2019-01-11T02:45:10.657Z,21.57
2019-01-11T02:47:39.019Z,20.93
2019-01-11T02:50:09.479Z,20.40
2019-01-11T02:52:37.887Z,19.93
2019-01-11T02:55:07.926Z,19.70
2019-01-11T02:57:36.305Z,19.70
2019-01-11T03:00:08.044Z,19.60
2019-01-11T03:02:36.484Z,23.27
2019-01-11T03:05:06.827Z,19.83
2019-01-11T03:07:35.429Z,21.80
2019-01-11T03:10:05.814Z,21.40
2019-01-11T03:12:34.257Z,20.73
2019-01-11T03:15:02.808Z,20.03
2019-01-11T03:17:31.242Z,21.13
2019-01-11T03:19:59.638Z,21.73
2019-01-11T03:22:28.245Z,20.97
2019-01-11T03:24:56.637Z,20.87
2019-01-11T03:27:25.038Z,20.03
2019-01-11T03:29:53.444Z,20.40
2019-01-11T03:32:21.813Z,20.50
2019-01-11T03:34:51.919Z,19.70
2019-01-11T03:37:20.277Z,21.00
2019-01-11T03:39:48.669Z,19.60
2019-01-11T03:42:17.042Z,20.90
2019-01-11T03:44:45.436Z,19.33
2019-01-11T03:47:13.877Z,19.70
2019-01-11T03:49:42.336Z,19.67
2019-01-11T03:52:10.843Z,18.80
2019-01-11T03:54:39.381Z,21.00
2019-01-11T03:57:07.812Z,21.80
2019-01-11T03:59:36.207Z,20.50
2019-01-11T04:02:04.655Z,21.90
2019-01-11T04:04:33.006Z,21.23
2019-01-11T04:07:01.476Z,23.20
2019-01-11T04:09:29.984Z,23.10
2019-01-11T04:11:58.624Z,23.53
2019-01-11T04:14:27.082Z,24.17
2019-01-11T04:16:55.461Z,23.97
2019-01-11T04:19:23.894Z,24.83
2019-01-11T04:22:03.245Z,24.73
2019-01-11T04:24:33.317Z,23.60
2019-01-11T04:27:01.704Z,23.53
2019-01-11T04:29:30.064Z,23.77
2019-01-11T04:31:58.473Z,22.53
2019-01-11T04:34:26.896Z,22.20
2019-01-11T04:36:55.396Z,23.17
2019-01-11T04:39:23.792Z,21.87
2019-01-11T04:41:52.175Z,22.47
2019-01-11T04:44:20.608Z,22.50
2019-01-11T04:46:48.997Z,23.60
2019-01-11T04:49:17.352Z,22.63
2019-01-11T04:51:45.809Z,23.70
2019-01-11T04:54:14.163Z,24.23
2019-01-11T04:56:42.623Z,23.60
2019-01-11T04:59:11.082Z,23.30
2019-01-11T05:01:39.554Z,24.80
2019-01-11T05:04:07.910Z,25.93
2019-01-11T05:06:36.366Z,23.83
2019-01-11T05:09:06.538Z,23.63
2019-01-11T05:11:35.035Z,23.20
2019-01-11T05:14:03.473Z,24.67
2019-01-11T05:16:31.935Z,25.57
2019-01-11T05:19:00.335Z,23.93
2019-01-11T05:21:28.649Z,24.43
2019-01-11T05:23:57.110Z,23.47
2019-01-11T05:26:25.759Z,25.00
2019-01-11T05:28:54.368Z,24.87
2019-01-11T05:31:24.813Z,22.80
2019-01-11T05:33:55.351Z,26.17
2019-01-11T05:36:26.659Z,27.17
2019-01-11T05:38:55.795Z,25.33
2019-01-11T05:41:24.152Z,25.83
2019-01-11T05:43:54.012Z,26.77
2019-01-11T05:46:22.442Z,24.20
2019-01-11T05:48:52.782Z,26.77
2019-01-11T05:51:21.297Z,26.70
2019-01-11T05:53:49.692Z,26.13
2019-01-11T05:56:19.155Z,26.73
2019-01-11T05:58:49.266Z,27.03
2019-01-11T06:01:17.714Z,28.07
2019-01-11T06:03:46.123Z,25.77
2019-01-11T06:06:14.615Z,26.93
2019-01-11T06:08:43.082Z,26.53
2019-01-11T06:11:11.502Z,29.37
2019-01-11T06:13:39.892Z,26.00
2019-01-11T06:16:08.529Z,24.77
2019-01-11T06:18:36.979Z,25.10
2019-01-11T06:21:05.344Z,24.00
2019-01-11T06:23:33.811Z,23.87
2019-01-11T06:26:02.297Z,26.33
2019-01-11T06:28:30.760Z,25.30
2019-01-11T06:30:59.190Z,26.40
2019-01-11T06:33:28.126Z,25.90
2019-01-11T06:35:56.560Z,26.00
2019-01-11T06:38:25.023Z,27.30
2019-01-11T06:40:53.387Z,29.70
2019-01-11T06:43:22.002Z,26.53
2019-01-11T06:45:50.353Z,27.97
2019-01-11T06:48:20.476Z,33.03
2019-01-11T06:50:48.980Z,33.30
2019-01-11T06:53:17.417Z,31.33
2019-01-11T06:55:45.852Z,31.10
2019-01-11T06:58:14.325Z,32.30
2019-01-11T07:00:42.683Z,29.83
2019-01-11T07:03:11.066Z,43.70
2019-01-11T07:05:39.426Z,32.23
2019-01-11T07:08:07.896Z,31.43
2019-01-11T07:10:36.323Z,31.73
2019-01-11T07:13:04.819Z,29.80
2019-01-11T07:15:33.222Z,30.37
2019-01-11T07:18:01.574Z,29.60
2019-01-11T07:20:29.966Z,30.70
2019-01-11T07:22:58.487Z,30.40
2019-01-11T07:25:27.029Z,30.67
2019-01-11T07:27:57.127Z,32.80
2019-01-11T07:30:27.234Z,29.20
2019-01-11T07:32:55.587Z,29.17
2019-01-11T07:35:25.696Z,30.40
2019-01-11T07:37:54.040Z,29.80
2019-01-11T07:40:22.504Z,30.40
2019-01-11T07:42:50.861Z,28.97
2019-01-11T07:45:19.957Z,30.57
2019-01-11T07:47:48.340Z,28.30
2019-01-11T07:50:16.808Z,29.57
2019-01-11T07:52:45.241Z,30.53
2019-01-11T07:55:14.154Z,30.97
2019-01-11T07:57:42.684Z,29.60
2019-01-11T08:00:12.892Z,31.57
2019-01-11T08:02:41.956Z,29.30
2019-01-11T08:05:10.483Z,30.97
2019-01-11T08:07:38.930Z,30.53
2019-01-11T08:10:10.157Z,30.03
2019-01-11T08:12:38.867Z,29.70
2019-01-11T08:15:10.451Z,30.97
2019-01-11T08:17:38.810Z,31.33
2019-01-11T08:20:08.512Z,31.13
2019-01-11T08:22:41.153Z,30.63
2019-01-11T08:25:10.920Z,29.87
2019-01-11T08:27:39.607Z,30.23
2019-01-11T08:30:13.938Z,31.23
2019-01-11T08:32:42.564Z,31.43
2019-01-11T08:35:12.072Z,32.97
2019-01-11T08:37:40.534Z,31.50
2019-01-11T08:40:11.435Z,32.53
2019-01-11T08:42:39.836Z,31.73
2019-01-11T08:45:11.436Z,32.63
2019-01-11T08:47:40.322Z,32.17
2019-01-11T08:50:12.181Z,32.10
2019-01-11T08:52:41.074Z,28.70
2019-01-11T08:55:09.711Z,30.47
2019-01-11T08:57:38.628Z,30.20
2019-01-11T09:00:10.758Z,30.13
2019-01-11T09:02:39.402Z,29.83
2019-01-11T09:05:08.872Z,32.70
2019-01-11T09:07:37.783Z,31.97
2019-01-11T09:10:12.409Z,29.83
2019-01-11T09:12:41.146Z,31.93
2019-01-11T09:15:10.118Z,30.30
2019-01-11T09:17:43.021Z,28.37
2019-01-11T09:20:11.451Z,31.80
2019-01-11T09:22:41.305Z,31.33
2019-01-11T09:25:09.795Z,30.63
2019-01-11T09:27:38.319Z,29.30
2019-01-11T09:30:11.614Z,27.27
2019-01-11T09:32:40.142Z,27.17
2019-01-11T09:35:09.112Z,27.50
2019-01-11T09:37:37.748Z,25.37
2019-01-11T09:40:08.640Z,27.50
2019-01-11T09:42:37.215Z,26.60
2019-01-11T09:45:07.417Z,25.53
2019-01-11T09:47:36.069Z,25.33
2019-01-11T09:50:07.289Z,25.20
2019-01-11T09:52:35.675Z,23.17
2019-01-11T09:55:05.316Z,24.40
2019-01-11T09:57:34.162Z,23.60
2019-01-11T10:00:03.840Z,27.67
2019-01-11T10:02:36.500Z,24.70
2019-01-11T10:05:08.058Z,24.73
2019-01-11T10:07:36.588Z,24.10
2019-01-11T10:10:08.358Z,26.53
2019-01-11T10:12:37.008Z,25.07
2019-01-11T10:15:07.244Z,25.10
2019-01-11T10:17:40.406Z,25.27
2019-01-11T10:20:12.852Z,25.57
2019-01-11T10:22:43.820Z,24.20
2019-01-11T10:25:12.734Z,25.33
2019-01-11T10:27:43.815Z,25.40
2019-01-11T10:30:18.810Z,23.50
2019-01-11T10:32:51.612Z,25.03
2019-01-11T10:35:20.339Z,23.73
2019-01-11T10:37:49.185Z,23.83
2019-01-11T10:40:19.624Z,25.57
2019-01-11T10:42:48.699Z,20.27
2019-01-11T10:45:20.881Z,24.13
2019-01-11T10:47:52.609Z,22.50
2019-01-11T10:50:21.524Z,21.53
2019-01-11T10:52:50.276Z,23.53
2019-01-11T10:55:20.939Z,20.07
2019-01-11T10:57:49.586Z,21.87
2019-01-11T11:00:21.573Z,23.00
2019-01-11T11:02:52.161Z,22.63
2019-01-11T11:05:21.402Z,22.37
2019-01-11T11:07:54.699Z,21.27
2019-01-11T11:10:23.457Z,23.33
2019-01-11T11:12:54.698Z,24.10
2019-01-11T11:15:27.161Z,24.53
2019-01-11T11:17:57.175Z,23.80
2019-01-11T11:20:28.436Z,23.33
2019-01-11T11:22:57.411Z,24.30
2019-01-11T11:25:26.526Z,22.77
2019-01-11T11:27:55.074Z,25.57
2019-01-11T11:30:24.242Z,22.93
2019-01-11T11:33:00.844Z,23.67
2019-01-11T11:35:29.493Z,25.73
2019-01-11T11:38:01.595Z,25.87
2019-01-11T11:40:30.607Z,23.50
2019-01-11T11:42:58.972Z,24.63
2019-01-11T11:45:28.781Z,22.37
2019-01-11T11:47:57.287Z,20.77
2019-01-11T11:50:27.042Z,19.20
2019-01-11T11:52:55.951Z,20.27
2019-01-11T11:55:25.101Z,20.10
2019-01-11T11:57:53.587Z,19.60
2019-01-11T12:00:24.124Z,20.13
2019-01-11T12:02:52.983Z,20.33
2019-01-11T12:05:21.893Z,19.67
2019-01-11T12:07:52.641Z,20.73
2019-01-11T12:10:21.560Z,21.60
2019-01-11T12:12:50.107Z,22.27
2019-01-11T12:15:19.505Z,21.10
2019-01-11T12:17:47.975Z,21.50
2019-01-11T12:20:26.283Z,22.87
2019-01-11T12:22:58.241Z,24.73
2019-01-11T12:25:28.505Z,23.90
2019-01-11T12:27:57.618Z,24.33
2019-01-11T12:30:25.979Z,25.47
2019-01-11T12:32:56.201Z,25.80
2019-01-11T12:35:24.991Z,27.27
2019-01-11T12:37:56.146Z,29.23
2019-01-11T12:40:24.999Z,27.90
2019-01-11T12:42:54.922Z,28.67
2019-01-11T12:45:23.853Z,31.50
2019-01-11T12:47:54.057Z,30.47
2019-01-11T12:50:24.091Z,29.80
2019-01-11T12:52:52.558Z,28.87
2019-01-11T12:55:21.249Z,29.53
2019-01-11T12:57:52.967Z,27.97
2019-01-11T13:00:21.995Z,30.27
2019-01-11T13:02:51.587Z,30.80
2019-01-11T13:05:22.757Z,31.77
2019-01-11T13:07:53.940Z,34.70
2019-01-11T13:10:22.486Z,31.20
2019-01-11T13:12:50.960Z,33.77
2019-01-11T13:15:20.458Z,36.30
2019-01-11T13:17:49.754Z,34.47
2019-01-11T13:20:20.274Z,33.87
2019-01-11T13:22:50.588Z,34.17
2019-01-11T13:25:19.446Z,31.87
2019-01-11T13:27:48.155Z,33.23
2019-01-11T13:30:19.990Z,32.63
2019-01-11T13:32:49.690Z,32.87
2019-01-11T13:35:18.358Z,30.57
2019-01-11T13:37:48.508Z,30.57
2019-01-11T13:40:20.523Z,29.03
2019-01-11T13:42:49.387Z,31.63
2019-01-11T13:45:18.187Z,32.00
2019-01-11T13:47:46.895Z,30.03
2019-01-11T13:50:31.006Z,32.47
2019-01-11T13:52:59.840Z,33.37
2019-01-11T13:55:28.343Z,31.80
2019-01-11T13:57:57.037Z,31.97
2019-01-11T14:00:25.542Z,31.70
2019-01-11T14:02:53.969Z,31.90
2019-01-11T14:05:22.566Z,31.03
2019-01-11T14:07:51.061Z,31.73
2019-01-11T14:13:04.616Z,34.00
2019-01-11T14:15:33.414Z,30.80
2019-01-11T14:18:04.023Z,30.93
2019-01-11T14:20:32.805Z,31.30
2019-01-11T14:23:01.717Z,30.43
2019-01-11T14:25:30.254Z,28.53
2019-01-11T14:27:59.051Z,31.33
2019-01-11T14:30:27.688Z,30.17
2019-01-11T14:32:56.107Z,29.63
2019-01-11T14:35:24.653Z,30.83
2019-01-11T14:37:53.143Z,28.33
2019-01-11T14:40:21.700Z,31.73
2019-01-11T14:42:51.606Z,31.60
2019-01-11T14:45:20.074Z,28.90
2019-01-11T14:47:48.738Z,29.07
2019-01-11T14:50:21.328Z,29.80
2019-01-11T14:52:49.755Z,29.40
2019-01-11T14:55:18.313Z,29.80
2019-01-11T14:57:47.030Z,29.50
2019-01-11T15:00:21.401Z,30.80
2019-01-11T15:02:50.008Z,30.33
2019-01-11T15:05:20.237Z,30.40
2019-01-11T15:07:48.756Z,30.20
2019-01-11T15:10:17.890Z,30.60
2019-01-11T15:12:48.139Z,31.77
2019-01-11T15:15:16.765Z,30.73
2019-01-11T15:17:45.195Z,31.87
2019-01-11T15:20:15.628Z,30.90
2019-01-11T15:22:44.533Z,32.90
2019-01-11T15:25:14.147Z,30.50
2019-01-11T15:27:45.506Z,31.13
2019-01-11T15:30:18.753Z,31.27
2019-01-11T15:32:47.186Z,32.30
2019-01-11T15:35:15.895Z,28.50
2019-01-11T15:37:44.394Z,30.53
2019-01-11T15:40:15.963Z,29.33
2019-01-11T15:42:44.749Z,29.50
2019-01-11T15:45:13.633Z,29.20
2019-01-11T15:47:42.761Z,29.03
2019-01-11T15:50:16.238Z,30.70
2019-01-11T15:52:44.722Z,30.67
2019-01-11T15:55:13.352Z,31.17
2019-01-11T15:57:43.168Z,29.60
2019-01-11T16:00:22.263Z,28.37
2019-01-11T16:02:50.809Z,27.73
2019-01-11T16:05:20.886Z,29.20
2019-01-11T16:07:50.758Z,27.90
2019-01-11T16:10:20.698Z,25.87
2019-01-11T16:12:49.728Z,27.13
2019-01-11T16:15:30.222Z,28.10
2019-01-11T16:18:13.920Z,28.23
2019-01-11T16:20:43.927Z,29.67
2019-01-11T16:23:12.463Z,29.27
2019-01-11T16:25:40.971Z,28.53
2019-01-11T16:28:10.371Z,28.97
2019-01-11T16:30:39.107Z,28.60
2019-01-11T16:33:07.918Z,26.30
2019-01-11T16:35:36.495Z,26.67
2019-01-11T16:38:05.132Z,28.47
2019-01-11T16:40:33.559Z,27.63
2019-01-11T16:43:02.688Z,25.20
2019-01-11T16:45:33.867Z,26.97
2019-01-11T16:48:02.739Z,32.07
2019-01-11T16:50:31.169Z,30.83
2019-01-11T16:52:59.632Z,27.00
2019-01-11T16:55:29.238Z,27.67
2019-01-11T16:57:57.812Z,29.17
2019-01-11T17:00:26.318Z,29.63
2019-01-11T17:02:54.750Z,31.37
2019-01-11T17:05:25.545Z,30.33
2019-01-11T17:07:54.157Z,29.37
2019-01-11T17:10:22.537Z,29.80
2019-01-11T17:12:50.980Z,29.87
2019-01-11T17:15:19.574Z,30.73
2019-01-11T17:17:48.312Z,28.93
2019-01-11T17:20:25.007Z,29.87
2019-01-11T17:22:55.481Z,29.67
2019-01-11T17:25:28.423Z,29.10
2019-01-11T17:27:59.251Z,26.20
2019-01-11T17:30:31.266Z,30.77
2019-01-11T17:33:01.213Z,28.00
2019-01-11T17:35:37.884Z,31.33
2019-01-11T17:38:05.120Z,31.27
2019-01-11T17:40:33.977Z,31.13
2019-01-11T17:43:02.825Z,31.30
2019-01-11T17:45:31.394Z,30.23
2019-01-11T17:47:59.891Z,30.77
2019-01-11T17:50:28.491Z,33.37
2019-01-11T17:53:00.050Z,32.37
2019-01-11T17:55:27.888Z,29.60
2019-01-11T17:57:56.475Z,73.83
2019-01-11T18:00:26.224Z,52.67
2019-01-11T18:02:56.429Z,38.53
2019-01-11T18:05:25.217Z,37.27
2019-01-11T18:08:00.200Z,42.10
2019-01-11T18:10:29.961Z,30.20
2019-01-11T18:13:03.955Z,29.47
2019-01-11T18:15:32.523Z,28.47
2019-01-11T18:18:02.703Z,29.23
2019-01-11T18:20:34.185Z,27.53
2019-01-11T18:23:07.081Z,29.47
2019-01-11T18:25:35.152Z,31.37
2019-01-11T18:28:06.939Z,29.77
2019-01-11T18:30:35.327Z,31.73
2019-01-11T18:33:03.759Z,28.57
2019-01-11T18:35:32.300Z,28.10
2019-01-11T18:38:00.803Z,29.37
2019-01-11T18:40:29.271Z,30.90
2019-01-11T18:42:57.639Z,29.00
2019-01-11T18:45:28.800Z,31.10
2019-01-11T18:47:56.193Z,31.37
2019-01-11T18:50:24.666Z,32.23
2019-01-11T18:52:53.115Z,30.77
2019-01-11T18:55:21.850Z,29.53
2019-01-11T18:57:51.294Z,29.93
2019-01-11T19:00:25.239Z,30.47
2019-01-11T19:02:58.606Z,31.27
2019-01-11T19:05:27.851Z,30.83
2019-01-11T19:07:56.370Z,30.20
2019-01-11T19:10:25.881Z,29.57
2019-01-11T19:12:54.793Z,29.37
2019-01-11T19:15:26.072Z,31.97
2019-01-11T19:17:54.496Z,30.13
2019-01-11T19:20:27.530Z,31.50
2019-01-11T19:22:55.968Z,30.83
2019-01-11T19:25:24.684Z,32.47
2019-01-11T19:27:53.144Z,31.03
2019-01-11T19:30:26.484Z,35.50
2019-01-11T19:32:54.941Z,31.70
2019-01-11T19:35:23.398Z,33.17
2019-01-11T19:37:52.436Z,31.93
2019-01-11T19:40:20.943Z,30.13
2019-01-11T19:42:49.689Z,31.43
2019-01-11T19:45:18.587Z,31.53
2019-01-11T19:47:47.117Z,31.93
2019-01-11T19:50:20.975Z,32.00
2019-01-11T19:52:50.334Z,32.20
2019-01-11T19:55:19.232Z,32.17
2019-01-11T19:57:47.685Z,31.20
2019-01-11T20:00:24.333Z,32.57
2019-01-11T20:02:52.889Z,33.60
2019-01-11T20:05:25.136Z,33.17
2019-01-11T20:07:54.195Z,30.30
2019-01-11T20:10:28.265Z,30.03
2019-01-11T20:12:56.825Z,33.07
2019-01-11T20:15:25.306Z,34.57
2019-01-11T20:17:53.784Z,32.83
2019-01-11T20:20:22.143Z,32.67
2019-01-11T20:22:50.680Z,34.07
2019-01-11T20:25:24.070Z,34.53
2019-01-11T20:27:52.782Z,33.27
2019-01-11T20:30:25.821Z,33.43
2019-01-11T20:32:54.282Z,33.40
2019-01-11T20:35:22.846Z,31.13
2019-01-11T20:37:52.287Z,29.90
2019-01-11T20:40:20.980Z,30.77
2019-01-11T20:42:49.584Z,29.80
2019-01-11T20:45:19.283Z,30.23
2019-01-11T20:47:47.750Z,29.70
2019-01-11T20:50:18.841Z,29.00
2019-01-11T20:52:49.050Z,30.60
2019-01-11T20:55:17.558Z,30.40
2019-01-11T20:57:46.164Z,28.40
2019-01-11T21:00:29.553Z,26.87
2019-01-11T21:02:58.078Z,28.57
2019-01-11T21:05:27.272Z,28.97
2019-01-11T21:07:55.839Z,29.73
2019-01-11T21:10:24.311Z,27.03
2019-01-11T21:12:52.780Z,27.03
2019-01-11T21:15:22.973Z,28.37
2019-01-11T21:17:51.435Z,27.77
2019-01-11T21:20:20.604Z,26.70
2019-01-11T21:22:49.478Z,28.93
2019-01-11T21:25:19.481Z,28.90
2019-01-11T21:27:47.950Z,27.67
2019-01-11T21:30:21.629Z,23.90
2019-01-11T21:32:50.154Z,25.33
2019-01-11T21:35:18.921Z,26.23
2019-01-11T21:37:47.821Z,24.07
2019-01-11T21:40:19.594Z,25.10
2019-01-11T21:42:48.441Z,30.07
2019-01-11T21:45:17.245Z,23.07
2019-01-11T21:47:45.751Z,23.70
2019-01-11T21:50:16.679Z,23.23
2019-01-11T21:52:45.107Z,23.57
2019-01-11T21:55:14.543Z,25.03
2019-01-11T21:57:43.345Z,25.10
2019-01-11T22:00:15.080Z,28.63
2019-01-11T22:02:44.980Z,25.13
2019-01-11T22:05:13.631Z,25.17
2019-01-11T22:07:42.320Z,25.20
2019-01-11T22:10:14.999Z,23.80
2019-01-11T22:12:43.544Z,25.10
2019-01-11T22:15:15.152Z,24.13
2019-01-11T22:17:43.652Z,26.77
2019-01-11T22:20:16.727Z,26.97
2019-01-11T22:22:45.317Z,27.23
2019-01-11T22:25:18.503Z,27.50
2019-01-11T22:27:46.958Z,29.20
2019-01-11T22:30:20.932Z,30.43
2019-01-11T22:32:49.378Z,26.90
2019-01-11T22:35:18.493Z,30.10
2019-01-11T22:37:50.262Z,29.87
2019-01-11T22:40:21.412Z,30.47
2019-01-11T22:42:51.817Z,73.67
2019-01-11T22:45:20.215Z,30.37
2019-01-11T22:47:48.641Z,29.23
2019-01-11T22:50:17.743Z,28.30
2019-01-11T22:52:46.655Z,27.80
2019-01-11T22:55:17.378Z,27.13
2019-01-11T22:57:46.328Z,28.17
2019-01-11T23:00:43.618Z,28.77
2019-01-11T23:03:18.703Z,28.53
2019-01-11T23:05:48.214Z,28.07
2019-01-11T23:08:18.722Z,29.47
2019-01-11T23:10:56.216Z,29.13
2019-01-11T23:13:25.089Z,26.90
2019-01-11T23:15:54.379Z,26.73
2019-01-11T23:18:23.443Z,28.77
2019-01-11T23:20:53.221Z,28.27
2019-01-11T23:23:21.895Z,28.07
2019-01-11T23:25:50.362Z,28.97
2019-01-11T23:28:18.966Z,29.13
2019-01-11T23:30:47.530Z,27.93
2019-01-11T23:33:16.109Z,29.20
2019-01-11T23:35:46.432Z,27.93
2019-01-11T23:38:15.796Z,29.50
2019-01-11T23:40:44.266Z,28.63
2019-01-11T23:43:12.765Z,29.20
2019-01-11T23:45:43.530Z,29.37
2019-01-11T23:48:13.681Z,28.77
2019-01-11T23:50:42.434Z,27.07
2019-01-11T23:53:11.290Z,26.87
2019-01-11T23:55:39.826Z,27.77
2019-01-11T23:58:08.466Z,27.00
